createdAt,value
2017-11-14T00:00:03.268Z,0
2017-11-14T00:01:05.079Z,0
2017-11-14T00:02:06.954Z,0
2017-11-14T00:03:08.835Z,0
2017-11-14T00:04:10.711Z,0
2017-11-14T00:05:24.901Z,0
2017-11-14T00:06:26.782Z,0
2017-11-14T00:07:28.657Z,0
2017-11-14T00:08:30.532Z,0
2017-11-14T00:09:32.345Z,0
2017-11-14T00:10:34.158Z,0
2017-11-14T00:11:36.035Z,0
2017-11-14T00:12:37.912Z,0
2017-11-14T00:13:39.800Z,0
2017-11-14T00:14:53.932Z,0
2017-11-14T00:15:55.806Z,0
2017-11-14T00:16:57.688Z,0
2017-11-14T00:17:59.564Z,0
2017-11-14T00:19:01.381Z,0
2017-11-14T00:20:03.194Z,0
2017-11-14T00:21:05.073Z,0
2017-11-14T00:22:06.951Z,0
2017-11-14T00:23:08.829Z,0
2017-11-14T00:24:22.972Z,0
2017-11-14T00:25:24.848Z,0
2017-11-14T00:26:26.728Z,0
2017-11-14T00:27:28.604Z,0
2017-11-14T00:28:30.417Z,0
2017-11-14T00:29:32.231Z,0
2017-11-14T00:30:34.108Z,0
2017-11-14T00:31:35.984Z,0
2017-11-14T00:32:37.860Z,0
2017-11-14T00:33:52.005Z,0
2017-11-14T00:34:53.880Z,0
2017-11-14T00:35:55.760Z,0
2017-11-14T00:36:57.637Z,0
2017-11-14T00:37:59.449Z,0
2017-11-14T00:39:01.260Z,0
2017-11-14T00:40:03.136Z,0
2017-11-14T00:41:05.012Z,0
2017-11-14T00:42:06.896Z,0
2017-11-14T00:43:21.080Z,0
2017-11-14T00:44:22.955Z,0
2017-11-14T00:45:24.832Z,0
2017-11-14T00:46:26.710Z,0
2017-11-14T00:47:28.523Z,0
2017-11-14T00:48:30.333Z,0
2017-11-14T00:49:32.209Z,0
2017-11-14T00:50:34.087Z,0
2017-11-14T00:51:35.959Z,0
2017-11-14T00:52:50.104Z,0
2017-11-14T00:53:51.978Z,0
2017-11-14T00:54:53.858Z,0
2017-11-14T00:55:55.734Z,0
2017-11-14T00:56:57.551Z,0
2017-11-14T00:57:59.358Z,0
2017-11-14T00:59:01.236Z,0
2017-11-14T01:00:03.113Z,0
2017-11-14T01:01:04.990Z,0
2017-11-14T01:02:19.134Z,0
2017-11-14T01:03:21.021Z,0
2017-11-14T01:04:22.889Z,0
2017-11-14T01:05:24.764Z,0
2017-11-14T01:06:26.578Z,0
2017-11-14T01:07:28.390Z,0
2017-11-14T01:08:30.266Z,0
2017-11-14T01:09:32.144Z,0
2017-11-14T01:10:34.019Z,0
2017-11-14T01:11:48.166Z,0
2017-11-14T01:12:50.041Z,0
2017-11-14T01:13:51.922Z,0
2017-11-14T01:14:53.800Z,0
2017-11-14T01:15:55.610Z,0
2017-11-14T01:16:57.418Z,0
2017-11-14T01:17:59.294Z,0
2017-11-14T01:19:01.171Z,0
2017-11-14T01:20:03.047Z,0
2017-11-14T01:21:17.193Z,0
2017-11-14T01:22:19.066Z,0
2017-11-14T01:23:20.946Z,0
2017-11-14T01:24:22.822Z,0
2017-11-14T01:25:24.633Z,0
2017-11-14T01:26:26.442Z,0
2017-11-14T01:27:28.319Z,0
2017-11-14T01:28:30.194Z,0
2017-11-14T01:29:32.071Z,0
2017-11-14T01:30:46.216Z,0
2017-11-14T01:31:48.089Z,0
2017-11-14T01:32:49.964Z,0
2017-11-14T01:33:51.841Z,0
2017-11-14T01:34:53.653Z,0
2017-11-14T01:35:55.463Z,0
2017-11-14T01:36:57.339Z,0
2017-11-14T01:37:59.217Z,0
2017-11-14T01:39:01.091Z,0
2017-11-14T01:40:15.239Z,0
2017-11-14T01:41:17.119Z,0
2017-11-14T01:42:18.996Z,0
2017-11-14T01:43:20.871Z,0
2017-11-14T01:44:22.682Z,0
2017-11-14T01:45:24.497Z,0
2017-11-14T01:46:26.368Z,0
2017-11-14T01:47:28.243Z,0
2017-11-14T01:48:30.118Z,0
2017-11-14T01:49:44.259Z,0
2017-11-14T01:50:46.134Z,0
2017-11-14T01:51:48.012Z,0
2017-11-14T01:52:49.887Z,0
2017-11-14T01:53:51.702Z,0
2017-11-14T01:54:53.510Z,0
2017-11-14T01:55:55.387Z,0
2017-11-14T01:56:57.263Z,0
2017-11-14T01:57:59.159Z,0
2017-11-14T01:59:13.284Z,0
2017-11-14T02:00:15.162Z,0
2017-11-14T02:01:17.041Z,0
2017-11-14T02:02:18.916Z,0
2017-11-14T02:03:20.729Z,0
2017-11-14T02:04:22.541Z,0
2017-11-14T02:05:24.423Z,0
2017-11-14T02:06:26.302Z,0
2017-11-14T02:07:28.179Z,0
2017-11-14T02:08:42.323Z,0
2017-11-14T02:09:44.197Z,0
2017-11-14T02:10:46.082Z,0
2017-11-14T02:11:47.956Z,0
2017-11-14T02:12:49.765Z,0
2017-11-14T02:13:51.574Z,0
2017-11-14T02:14:53.451Z,0
2017-11-14T02:15:55.330Z,0
2017-11-14T02:16:57.206Z,0
2017-11-14T02:18:11.353Z,0
2017-11-14T02:19:13.227Z,0
2017-11-14T02:20:15.107Z,0
2017-11-14T02:21:16.983Z,0
2017-11-14T02:22:18.795Z,0
2017-11-14T02:23:20.604Z,0
2017-11-14T02:24:22.481Z,0
2017-11-14T02:25:24.358Z,0
2017-11-14T02:26:26.232Z,0
2017-11-14T02:27:40.384Z,0
2017-11-14T02:28:42.252Z,0
2017-11-14T02:29:44.135Z,0
2017-11-14T02:30:46.010Z,0
2017-11-14T02:31:47.826Z,0
2017-11-14T02:32:49.653Z,0
2017-11-14T02:33:51.517Z,0
2017-11-14T02:34:53.388Z,0
2017-11-14T02:35:55.269Z,0
2017-11-14T02:37:09.413Z,0
2017-11-14T02:38:11.292Z,0
2017-11-14T02:39:13.170Z,0
2017-11-14T02:40:15.043Z,0
2017-11-14T02:41:16.859Z,0
2017-11-14T02:42:18.669Z,0
2017-11-14T02:43:20.543Z,0
2017-11-14T02:44:22.420Z,0
2017-11-14T02:45:24.296Z,0
2017-11-14T02:46:38.443Z,0
2017-11-14T02:47:40.317Z,0
2017-11-14T02:48:42.193Z,0
2017-11-14T02:49:44.070Z,0
2017-11-14T02:50:45.885Z,0
2017-11-14T02:51:47.707Z,0
2017-11-14T02:52:49.572Z,0
2017-11-14T02:53:51.464Z,0
2017-11-14T02:54:53.326Z,0
2017-11-14T02:56:07.475Z,0
2017-11-14T02:57:09.344Z,0
2017-11-14T02:58:11.219Z,0
2017-11-14T02:59:13.096Z,0
2017-11-14T03:00:14.911Z,0
2017-11-14T03:01:16.721Z,0
2017-11-14T03:02:18.595Z,0
2017-11-14T03:03:20.432Z,0
2017-11-14T03:04:22.246Z,0
2017-11-14T03:05:36.395Z,0
2017-11-14T03:06:38.268Z,0
2017-11-14T03:07:40.145Z,0
2017-11-14T03:08:42.018Z,0
2017-11-14T03:09:43.832Z,0
2017-11-14T03:10:45.645Z,0
2017-11-14T03:11:47.525Z,0
2017-11-14T03:12:49.395Z,0
2017-11-14T03:13:51.270Z,0
2017-11-14T03:15:05.416Z,0
2017-11-14T03:16:07.295Z,0
2017-11-14T03:17:09.172Z,0
2017-11-14T03:18:11.047Z,0
2017-11-14T03:19:12.859Z,0
2017-11-14T03:20:14.672Z,0
2017-11-14T03:21:16.547Z,0
2017-11-14T03:22:18.424Z,0
2017-11-14T03:23:20.300Z,0
2017-11-14T03:24:34.450Z,0
2017-11-14T03:25:36.325Z,0
2017-11-14T03:26:38.201Z,0
2017-11-14T03:27:40.074Z,0
2017-11-14T03:28:41.890Z,0
2017-11-14T03:29:43.701Z,0
2017-11-14T03:30:45.577Z,0
2017-11-14T03:31:47.455Z,0
2017-11-14T03:32:49.343Z,0
2017-11-14T03:34:03.477Z,0
2017-11-14T03:35:05.353Z,0
2017-11-14T03:36:07.231Z,0
2017-11-14T03:37:09.111Z,0
2017-11-14T03:38:10.925Z,0
2017-11-14T03:39:12.738Z,0
2017-11-14T03:40:14.614Z,0
2017-11-14T03:41:16.493Z,0
2017-11-14T03:42:18.373Z,0
2017-11-14T03:43:32.519Z,0
2017-11-14T03:44:34.433Z,0
2017-11-14T03:45:36.374Z,0
2017-11-14T03:46:38.259Z,0
2017-11-14T03:47:40.074Z,0
2017-11-14T03:48:41.888Z,0
2017-11-14T03:49:43.764Z,0
2017-11-14T03:50:45.645Z,0
2017-11-14T03:51:47.517Z,0
2017-11-14T03:53:01.666Z,0
2017-11-14T03:54:03.544Z,0
2017-11-14T03:55:05.424Z,0
2017-11-14T03:56:07.299Z,0
2017-11-14T03:57:09.120Z,0
2017-11-14T03:58:10.927Z,0
2017-11-14T03:59:12.808Z,0
2017-11-14T04:00:14.691Z,0
2017-11-14T04:01:16.571Z,0
2017-11-14T04:02:30.765Z,0
2017-11-14T04:03:32.641Z,0
2017-11-14T04:04:34.518Z,0
2017-11-14T04:05:36.396Z,0
2017-11-14T04:06:38.216Z,0
2017-11-14T04:07:40.054Z,0
2017-11-14T04:08:41.930Z,0
2017-11-14T04:09:43.809Z,0
2017-11-14T04:10:45.686Z,0
2017-11-14T04:11:59.834Z,0
2017-11-14T04:13:01.710Z,0
2017-11-14T04:14:03.586Z,0
2017-11-14T04:15:05.464Z,0
2017-11-14T04:16:07.276Z,0
2017-11-14T04:17:09.087Z,0
2017-11-14T04:18:10.963Z,0
2017-11-14T04:19:12.838Z,0
2017-11-14T04:20:14.718Z,0
2017-11-14T04:21:28.916Z,0
2017-11-14T04:22:30.791Z,0
2017-11-14T04:23:32.670Z,0
2017-11-14T04:24:34.544Z,0
2017-11-14T04:25:36.359Z,0
2017-11-14T04:26:38.171Z,0
2017-11-14T04:27:40.047Z,0
2017-11-14T04:28:41.923Z,0
2017-11-14T04:29:43.799Z,0
2017-11-14T04:30:57.945Z,0
2017-11-14T04:31:59.821Z,0
2017-11-14T04:33:01.699Z,0
2017-11-14T04:34:03.574Z,0
2017-11-14T04:35:05.389Z,0
2017-11-14T04:36:07.199Z,0
2017-11-14T04:37:09.034Z,0
2017-11-14T04:38:10.848Z,0
2017-11-14T04:39:12.660Z,0
2017-11-14T04:40:26.856Z,0
2017-11-14T04:41:28.730Z,0
2017-11-14T04:42:30.630Z,0
2017-11-14T04:43:32.487Z,0
2017-11-14T04:44:34.303Z,0
2017-11-14T04:45:36.116Z,0
2017-11-14T04:46:37.999Z,0
2017-11-14T04:47:39.870Z,0
2017-11-14T04:48:41.749Z,0
2017-11-14T04:49:55.945Z,0
2017-11-14T04:50:57.820Z,0
2017-11-14T04:51:59.697Z,0
2017-11-14T04:53:01.573Z,0
2017-11-14T04:54:03.391Z,0
2017-11-14T04:55:05.203Z,0
2017-11-14T04:56:07.083Z,0
2017-11-14T04:57:08.957Z,0
2017-11-14T04:58:10.838Z,0
2017-11-14T04:59:24.984Z,0
2017-11-14T05:00:26.858Z,0
2017-11-14T05:01:28.734Z,0
2017-11-14T05:02:30.608Z,0
2017-11-14T05:03:32.422Z,0
2017-11-14T05:04:34.236Z,0
2017-11-14T05:05:36.109Z,0
2017-11-14T05:06:37.987Z,0
2017-11-14T05:07:39.862Z,0
2017-11-14T05:08:54.007Z,0
2017-11-14T05:09:55.883Z,0
2017-11-14T05:10:57.771Z,0
2017-11-14T05:11:59.632Z,0
2017-11-14T05:13:01.446Z,0
2017-11-14T05:14:03.264Z,0
2017-11-14T05:15:05.133Z,0
2017-11-14T05:16:07.008Z,0
2017-11-14T05:17:08.884Z,0
2017-11-14T05:18:23.031Z,0
2017-11-14T05:19:24.905Z,0
2017-11-14T05:20:26.782Z,0
2017-11-14T05:21:28.658Z,0
2017-11-14T05:22:30.470Z,0
2017-11-14T05:23:32.284Z,0
2017-11-14T05:24:34.161Z,0
2017-11-14T05:25:36.039Z,0
2017-11-14T05:26:37.914Z,0
2017-11-14T05:27:52.061Z,0
2017-11-14T05:28:53.938Z,0
2017-11-14T05:29:55.818Z,0
2017-11-14T05:30:57.690Z,0
2017-11-14T05:31:59.504Z,0
2017-11-14T05:33:01.314Z,0
2017-11-14T05:34:03.197Z,0
2017-11-14T05:35:05.071Z,0
2017-11-14T05:36:06.948Z,0
2017-11-14T05:37:21.123Z,0
2017-11-14T05:38:22.975Z,0
2017-11-14T05:39:24.854Z,0
2017-11-14T05:40:26.727Z,0
2017-11-14T05:41:28.541Z,0
2017-11-14T05:42:30.353Z,0
2017-11-14T05:43:32.229Z,0
2017-11-14T05:44:34.103Z,0
2017-11-14T05:45:35.983Z,4
2017-11-14T05:46:50.129Z,4
2017-11-14T05:47:52.007Z,4
2017-11-14T05:48:53.882Z,4
2017-11-14T05:49:55.756Z,0
2017-11-14T05:50:57.569Z,4
2017-11-14T05:51:59.382Z,4
2017-11-14T05:53:01.256Z,4
2017-11-14T05:54:03.134Z,8
2017-11-14T05:55:05.011Z,12
2017-11-14T05:56:19.163Z,8
2017-11-14T05:57:21.036Z,8
2017-11-14T05:58:22.918Z,12
2017-11-14T05:59:24.793Z,12
2017-11-14T06:00:26.609Z,20
2017-11-14T06:01:28.422Z,24
2017-11-14T06:02:30.299Z,28
2017-11-14T06:03:32.175Z,32
2017-11-14T06:04:34.055Z,40
2017-11-14T06:05:48.201Z,48
2017-11-14T06:06:50.076Z,60
2017-11-14T06:07:51.955Z,88
2017-11-14T06:08:53.834Z,108
2017-11-14T06:09:55.651Z,124
2017-11-14T06:10:57.469Z,136
2017-11-14T06:11:59.347Z,144
2017-11-14T06:13:01.228Z,160
2017-11-14T06:14:03.106Z,184
2017-11-14T06:15:17.256Z,212
2017-11-14T06:16:19.133Z,240
2017-11-14T06:17:21.015Z,280
2017-11-14T06:18:22.892Z,300
2017-11-14T06:19:24.712Z,332
2017-11-14T06:20:26.531Z,360
2017-11-14T06:21:28.408Z,376
2017-11-14T06:22:30.288Z,384
2017-11-14T06:23:32.167Z,416
2017-11-14T06:24:46.316Z,444
2017-11-14T06:25:48.196Z,472
2017-11-14T06:26:50.075Z,464
2017-11-14T06:27:51.955Z,472
2017-11-14T06:28:53.773Z,448
2017-11-14T06:29:55.587Z,444
2017-11-14T06:30:57.468Z,468
2017-11-14T06:31:59.348Z,468
2017-11-14T06:33:01.227Z,524
2017-11-14T06:34:15.375Z,536
2017-11-14T06:35:17.253Z,556
2017-11-14T06:36:19.144Z,604
2017-11-14T06:37:21.015Z,648
2017-11-14T06:38:22.830Z,628
2017-11-14T06:39:24.648Z,676
2017-11-14T06:40:26.533Z,764
2017-11-14T06:41:28.409Z,600
2017-11-14T06:42:30.286Z,656
2017-11-14T06:43:44.466Z,644
2017-11-14T06:44:46.343Z,628
2017-11-14T06:45:48.226Z,532
2017-11-14T06:46:50.100Z,536
2017-11-14T06:47:51.915Z,532
2017-11-14T06:48:53.734Z,680
2017-11-14T06:49:55.620Z,584
2017-11-14T06:50:57.491Z,568
2017-11-14T06:51:59.372Z,552
2017-11-14T06:53:13.523Z,568
2017-11-14T06:54:15.402Z,592
2017-11-14T06:55:17.282Z,624
2017-11-14T06:56:19.161Z,752
2017-11-14T06:57:20.983Z,764
2017-11-14T06:58:22.831Z,836
2017-11-14T06:59:24.718Z,856
2017-11-14T07:00:26.587Z,884
2017-11-14T07:01:28.470Z,1064
2017-11-14T07:02:42.671Z,1168
2017-11-14T07:03:44.549Z,1236
2017-11-14T07:04:46.430Z,1272
2017-11-14T07:05:48.313Z,1088
2017-11-14T07:06:50.132Z,1060
2017-11-14T07:07:51.946Z,1188
2017-11-14T07:08:53.830Z,1284
2017-11-14T07:09:55.713Z,1464
2017-11-14T07:10:57.598Z,1392
2017-11-14T07:12:11.806Z,1004
2017-11-14T07:13:13.686Z,936
2017-11-14T07:14:15.565Z,904
2017-11-14T07:15:17.452Z,836
2017-11-14T07:16:19.268Z,912
2017-11-14T07:17:21.083Z,988
2017-11-14T07:18:22.962Z,996
2017-11-14T07:19:24.842Z,932
2017-11-14T07:20:26.727Z,1112
2017-11-14T07:21:40.881Z,1124
2017-11-14T07:22:42.758Z,1152
2017-11-14T07:23:44.658Z,1204
2017-11-14T07:24:46.539Z,1248
2017-11-14T07:25:48.355Z,1152
2017-11-14T07:26:50.171Z,1076
2017-11-14T07:27:52.052Z,1088
2017-11-14T07:28:53.934Z,1036
2017-11-14T07:29:55.822Z,1056
2017-11-14T07:31:10.026Z,1016
2017-11-14T07:32:11.901Z,1164
2017-11-14T07:33:13.788Z,1312
2017-11-14T07:34:15.666Z,1372
2017-11-14T07:35:17.488Z,1132
2017-11-14T07:36:19.317Z,988
2017-11-14T07:37:21.192Z,1224
2017-11-14T07:38:23.069Z,1372
2017-11-14T07:39:24.955Z,1532
2017-11-14T07:40:39.117Z,1912
2017-11-14T07:41:40.997Z,2300
2017-11-14T07:42:42.881Z,2032
2017-11-14T07:43:44.767Z,2044
2017-11-14T07:44:46.583Z,1920
2017-11-14T07:45:48.404Z,1704
2017-11-14T07:46:50.286Z,1580
2017-11-14T07:47:52.230Z,1612
2017-11-14T07:48:54.092Z,1444
2017-11-14T07:50:08.240Z,1616
2017-11-14T07:51:10.115Z,1928
2017-11-14T07:52:12.001Z,1448
2017-11-14T07:53:13.877Z,1392
2017-11-14T07:54:15.695Z,1496
2017-11-14T07:55:17.532Z,1148
2017-11-14T07:56:19.409Z,1048
2017-11-14T07:57:21.248Z,992
2017-11-14T07:58:23.093Z,1020
2017-11-14T07:59:37.222Z,1352
2017-11-14T08:00:39.103Z,1588
2017-11-14T08:01:40.986Z,1604
2017-11-14T08:02:42.868Z,1528
2017-11-14T08:03:44.684Z,1348
2017-11-14T08:04:46.503Z,1444
2017-11-14T08:05:48.388Z,1528
2017-11-14T08:06:50.271Z,1752
2017-11-14T08:07:52.151Z,1812
2017-11-14T08:09:06.305Z,1952
2017-11-14T08:10:08.184Z,1908
2017-11-14T08:11:10.067Z,1868
2017-11-14T08:12:11.946Z,1748
2017-11-14T08:13:13.765Z,1948
2017-11-14T08:14:15.583Z,2000
2017-11-14T08:15:17.465Z,1844
2017-11-14T08:16:19.352Z,2128
2017-11-14T08:17:21.232Z,2068
2017-11-14T08:18:35.389Z,2084
2017-11-14T08:19:37.266Z,2012
2017-11-14T08:20:39.146Z,2040
2017-11-14T08:21:41.025Z,1828
2017-11-14T08:22:42.844Z,1736
2017-11-14T08:23:44.661Z,2228
2017-11-14T08:24:46.542Z,2904
2017-11-14T08:25:48.462Z,3844
2017-11-14T08:26:50.319Z,4064
2017-11-14T08:28:04.471Z,3236
2017-11-14T08:29:06.362Z,3428
2017-11-14T08:30:08.233Z,3176
2017-11-14T08:31:10.114Z,3004
2017-11-14T08:32:11.935Z,2104
2017-11-14T08:33:13.749Z,1740
2017-11-14T08:34:15.665Z,1888
2017-11-14T08:35:17.518Z,2400
2017-11-14T08:36:19.402Z,3468
2017-11-14T08:37:33.605Z,4684
2017-11-14T08:38:35.488Z,4080
2017-11-14T08:39:37.372Z,3236
2017-11-14T08:40:39.257Z,2924
2017-11-14T08:41:41.078Z,3632
2017-11-14T08:42:42.895Z,4636
2017-11-14T08:43:44.778Z,4020
2017-11-14T08:44:46.659Z,3460
2017-11-14T08:45:48.842Z,3076
2017-11-14T08:47:03.015Z,4308
2017-11-14T08:48:04.897Z,4320
2017-11-14T08:49:06.776Z,4788
2017-11-14T08:50:08.658Z,6040
2017-11-14T08:51:10.478Z,4664
2017-11-14T08:52:12.301Z,3720
2017-11-14T08:53:14.179Z,3508
2017-11-14T08:54:16.065Z,4412
2017-11-14T08:55:17.951Z,5044
2017-11-14T08:56:32.107Z,4324
2017-11-14T08:57:34.006Z,4520
2017-11-14T08:58:35.874Z,4828
2017-11-14T08:59:37.757Z,5860
2017-11-14T09:00:39.578Z,7288
2017-11-14T09:01:41.397Z,7496
2017-11-14T09:02:43.279Z,6040
2017-11-14T09:03:45.292Z,6380
2017-11-14T09:04:47.147Z,5820
2017-11-14T09:06:01.304Z,5840
2017-11-14T09:07:03.183Z,6648
2017-11-14T09:08:05.075Z,6356
2017-11-14T09:09:06.949Z,6472
2017-11-14T09:10:08.770Z,6396
2017-11-14T09:11:10.591Z,6396
2017-11-14T09:12:12.473Z,5948
2017-11-14T09:13:14.358Z,6280
2017-11-14T09:14:16.254Z,6892
2017-11-14T09:15:30.397Z,8040
2017-11-14T09:16:32.277Z,8580
2017-11-14T09:17:34.162Z,7320
2017-11-14T09:18:36.044Z,6676
2017-11-14T09:19:37.868Z,6000
2017-11-14T09:20:39.684Z,5068
2017-11-14T09:21:41.569Z,5060
2017-11-14T09:22:43.457Z,5084
2017-11-14T09:23:45.348Z,5356
2017-11-14T09:24:59.548Z,6252
2017-11-14T09:26:01.434Z,6584
2017-11-14T09:27:03.318Z,6300
2017-11-14T09:28:05.202Z,6384
2017-11-14T09:29:07.023Z,5620
2017-11-14T09:30:08.844Z,5952
2017-11-14T09:31:10.727Z,6808
2017-11-14T09:32:12.613Z,7164
2017-11-14T09:33:14.495Z,6828
2017-11-14T09:34:28.671Z,6476
2017-11-14T09:35:30.545Z,6916
2017-11-14T09:36:32.427Z,7116
2017-11-14T09:37:34.311Z,7068
2017-11-14T09:38:36.133Z,6692
2017-11-14T09:39:38.019Z,6404
2017-11-14T09:40:40.089Z,6076
2017-11-14T09:41:42.086Z,5892
2017-11-14T09:42:43.965Z,5896
2017-11-14T09:43:58.125Z,6016
2017-11-14T09:45:00.001Z,5932
2017-11-14T09:46:01.887Z,5384
2017-11-14T09:47:03.770Z,5556
2017-11-14T09:48:05.592Z,6344
2017-11-14T09:49:07.563Z,6112
2017-11-14T09:50:09.528Z,5252
2017-11-14T09:51:11.511Z,4900
2017-11-14T09:52:13.516Z,5076
2017-11-14T09:53:27.911Z,5080
2017-11-14T09:54:29.921Z,5036
2017-11-14T09:55:31.808Z,4924
2017-11-14T09:56:33.687Z,4632
2017-11-14T09:57:35.506Z,4332
2017-11-14T09:58:37.331Z,4192
2017-11-14T09:59:39.212Z,3984
2017-11-14T10:00:41.096Z,3904
2017-11-14T10:01:42.981Z,4064
2017-11-14T10:02:57.139Z,4468
2017-11-14T10:03:59.023Z,5000
2017-11-14T10:05:00.906Z,5648
2017-11-14T10:06:02.793Z,5928
2017-11-14T10:07:04.610Z,5776
2017-11-14T10:08:06.431Z,5444
2017-11-14T10:09:08.317Z,5132
2017-11-14T10:10:10.198Z,4812
2017-11-14T10:11:12.043Z,4260
2017-11-14T10:12:26.204Z,3476
2017-11-14T10:13:28.087Z,2780
2017-11-14T10:14:29.973Z,2276
2017-11-14T10:15:31.855Z,2124
2017-11-14T10:16:33.677Z,2332
2017-11-14T10:17:35.590Z,2568
2017-11-14T10:18:37.589Z,2648
2017-11-14T10:19:39.678Z,2720
2017-11-14T10:20:41.675Z,3212
2017-11-14T10:21:55.830Z,4028
2017-11-14T10:22:57.714Z,4816
2017-11-14T10:23:59.596Z,5508
2017-11-14T10:25:01.483Z,5376
2017-11-14T10:26:03.303Z,5068
2017-11-14T10:27:05.125Z,5276
2017-11-14T10:28:07.008Z,6048
2017-11-14T10:29:08.894Z,6664
2017-11-14T10:30:10.856Z,7052
2017-11-14T10:31:25.155Z,7216
2017-11-14T10:32:27.030Z,7176
2017-11-14T10:33:28.916Z,6948
2017-11-14T10:34:30.801Z,6528
2017-11-14T10:35:32.622Z,6116
2017-11-14T10:36:34.446Z,6392
2017-11-14T10:37:36.329Z,6376
2017-11-14T10:38:38.213Z,5836
2017-11-14T10:39:40.102Z,5232
2017-11-14T10:40:54.258Z,4916
2017-11-14T10:41:56.150Z,4760
2017-11-14T10:42:58.026Z,5084
2017-11-14T10:43:59.913Z,5332
2017-11-14T10:45:01.746Z,5456
2017-11-14T10:46:03.560Z,6136
2017-11-14T10:47:05.447Z,6680
2017-11-14T10:48:07.331Z,6820
2017-11-14T10:49:09.219Z,7040
2017-11-14T10:50:23.375Z,7224
2017-11-14T10:51:25.258Z,7472
2017-11-14T10:52:27.145Z,7416
2017-11-14T10:53:29.030Z,6984
2017-11-14T10:54:30.859Z,6536
2017-11-14T10:55:32.673Z,6524
2017-11-14T10:56:34.569Z,6472
2017-11-14T10:57:36.443Z,6320
2017-11-14T10:58:38.335Z,6496
2017-11-14T10:59:52.490Z,6524
2017-11-14T11:00:54.374Z,6492
2017-11-14T11:01:56.259Z,6352
2017-11-14T11:02:58.145Z,6120
2017-11-14T11:03:59.973Z,6064
2017-11-14T11:05:01.793Z,6108
2017-11-14T11:06:03.677Z,5868
2017-11-14T11:07:05.575Z,5640
2017-11-14T11:08:07.454Z,5588
2017-11-14T11:09:21.630Z,5924
2017-11-14T11:10:23.502Z,6560
2017-11-14T11:11:25.385Z,7212
2017-11-14T11:12:27.266Z,7464
2017-11-14T11:13:29.090Z,7380
2017-11-14T11:14:30.914Z,7032
2017-11-14T11:15:32.802Z,6720
2017-11-14T11:16:34.697Z,6716
2017-11-14T11:17:36.578Z,6556
2017-11-14T11:18:50.734Z,5936
2017-11-14T11:19:52.619Z,5812
2017-11-14T11:20:54.506Z,6016
2017-11-14T11:21:56.395Z,6168
2017-11-14T11:22:58.220Z,6148
2017-11-14T11:24:00.043Z,6292
2017-11-14T11:25:01.926Z,6544
2017-11-14T11:26:03.812Z,6888
2017-11-14T11:27:05.706Z,7472
2017-11-14T11:28:19.859Z,7416
2017-11-14T11:29:21.745Z,7432
2017-11-14T11:30:23.631Z,7924
2017-11-14T11:31:25.516Z,7752
2017-11-14T11:32:27.365Z,7644
2017-11-14T11:33:29.189Z,7416
2017-11-14T11:34:31.103Z,6620
2017-11-14T11:35:33.023Z,5656
2017-11-14T11:36:34.874Z,4884
2017-11-14T11:37:49.070Z,4576
2017-11-14T11:38:50.957Z,4428
2017-11-14T11:39:52.841Z,4248
2017-11-14T11:40:54.727Z,4096
2017-11-14T11:41:56.555Z,3992
2017-11-14T11:42:58.378Z,4084
2017-11-14T11:44:00.261Z,4412
2017-11-14T11:45:02.149Z,4352
2017-11-14T11:46:04.029Z,4560
2017-11-14T11:47:18.189Z,4652
2017-11-14T11:48:20.184Z,4852
2017-11-14T11:49:22.134Z,5080
2017-11-14T11:50:24.018Z,5336
2017-11-14T11:51:25.838Z,5852
2017-11-14T11:52:27.661Z,6100
2017-11-14T11:53:29.545Z,5880
2017-11-14T11:54:31.429Z,5808
2017-11-14T11:55:33.382Z,5936
2017-11-14T11:56:47.586Z,6372
2017-11-14T11:57:49.466Z,6472
2017-11-14T11:58:51.350Z,6416
2017-11-14T11:59:53.234Z,6268
2017-11-14T12:00:55.060Z,6148
2017-11-14T12:01:56.887Z,6072
2017-11-14T12:02:58.813Z,5608
2017-11-14T12:04:00.726Z,5420
2017-11-14T12:05:02.612Z,5012
2017-11-14T12:06:16.997Z,4792
2017-11-14T12:07:18.881Z,4736
2017-11-14T12:08:20.765Z,4956
2017-11-14T12:09:22.651Z,5252
2017-11-14T12:10:24.500Z,5440
2017-11-14T12:11:26.975Z,5488
2017-11-14T12:12:28.848Z,5220
2017-11-14T12:13:30.695Z,5184
2017-11-14T12:14:32.518Z,5324
2017-11-14T12:15:46.764Z,5744
2017-11-14T12:16:48.647Z,5720
2017-11-14T12:17:50.533Z,5384
2017-11-14T12:18:52.422Z,5280
2017-11-14T12:19:54.294Z,5552
2017-11-14T12:20:56.139Z,5828
2017-11-14T12:21:58.028Z,5912
2017-11-14T12:22:59.911Z,5684
2017-11-14T12:24:01.799Z,5420
2017-11-14T12:25:15.957Z,5384
2017-11-14T12:26:17.842Z,5288
2017-11-14T12:27:19.726Z,5092
2017-11-14T12:28:21.617Z,4864
2017-11-14T12:29:23.432Z,4472
2017-11-14T12:30:25.256Z,4060
2017-11-14T12:31:27.142Z,3868
2017-11-14T12:32:29.032Z,3904
2017-11-14T12:33:30.913Z,3784
2017-11-14T12:34:45.070Z,3456
2017-11-14T12:35:46.955Z,3428
2017-11-14T12:36:48.839Z,3632
2017-11-14T12:37:50.724Z,3828
2017-11-14T12:38:52.547Z,3628
2017-11-14T12:39:54.374Z,3668
2017-11-14T12:40:56.257Z,3764
2017-11-14T12:41:58.145Z,3764
2017-11-14T12:43:00.028Z,3912
2017-11-14T12:44:14.184Z,4216
2017-11-14T12:45:16.071Z,4352
2017-11-14T12:46:17.957Z,4540
2017-11-14T12:47:19.841Z,4812
2017-11-14T12:48:21.680Z,5004
2017-11-14T12:49:23.494Z,4888
2017-11-14T12:50:25.381Z,4628
2017-11-14T12:51:27.264Z,4168
2017-11-14T12:52:29.230Z,3676
2017-11-14T12:53:43.412Z,3300
2017-11-14T12:54:45.297Z,3056
2017-11-14T12:55:47.182Z,2856
2017-11-14T12:56:49.069Z,2732
2017-11-14T12:57:50.893Z,2636
2017-11-14T12:58:52.717Z,2460
2017-11-14T12:59:54.599Z,2400
2017-11-14T13:00:56.485Z,2468
2017-11-14T13:01:58.358Z,2308
2017-11-14T13:03:12.536Z,2104
2017-11-14T13:04:14.428Z,1968
2017-11-14T13:05:16.309Z,1808
2017-11-14T13:06:18.193Z,1688
2017-11-14T13:07:20.020Z,1652
2017-11-14T13:08:21.833Z,1692
2017-11-14T13:09:23.717Z,1708
2017-11-14T13:10:25.614Z,1808
2017-11-14T13:11:27.488Z,2020
2017-11-14T13:12:41.678Z,2184
2017-11-14T13:13:43.565Z,2276
2017-11-14T13:14:45.448Z,2376
2017-11-14T13:15:47.330Z,2476
2017-11-14T13:16:49.150Z,2528
2017-11-14T13:17:50.973Z,2480
2017-11-14T13:18:52.791Z,2296
2017-11-14T13:19:54.615Z,2112
2017-11-14T13:20:56.440Z,2060
2017-11-14T13:22:10.603Z,2160
2017-11-14T13:23:12.473Z,2408
2017-11-14T13:24:14.356Z,2492
2017-11-14T13:25:16.236Z,2384
2017-11-14T13:26:18.074Z,2276
2017-11-14T13:27:19.881Z,2264
2017-11-14T13:28:21.765Z,2224
2017-11-14T13:29:23.653Z,2160
2017-11-14T13:30:25.533Z,2120
2017-11-14T13:31:39.740Z,2096
2017-11-14T13:32:41.623Z,2032
2017-11-14T13:33:43.504Z,1832
2017-11-14T13:34:45.386Z,1636
2017-11-14T13:35:47.207Z,1468
2017-11-14T13:36:49.026Z,1328
2017-11-14T13:37:50.907Z,1216
2017-11-14T13:38:52.791Z,1148
2017-11-14T13:39:54.686Z,1116
2017-11-14T13:41:08.875Z,1076
2017-11-14T13:42:10.754Z,1056
2017-11-14T13:43:12.640Z,1048
2017-11-14T13:44:14.525Z,1020
2017-11-14T13:45:16.345Z,1020
2017-11-14T13:46:18.167Z,1052
2017-11-14T13:47:20.050Z,1016
2017-11-14T13:48:21.933Z,900
2017-11-14T13:49:23.816Z,796
2017-11-14T13:50:38.020Z,764
2017-11-14T13:51:39.897Z,772
2017-11-14T13:52:41.779Z,784
2017-11-14T13:53:43.657Z,784
2017-11-14T13:54:45.476Z,772
2017-11-14T13:55:47.295Z,764
2017-11-14T13:56:49.175Z,752
2017-11-14T13:57:51.056Z,732
2017-11-14T13:58:52.939Z,700
2017-11-14T14:00:07.090Z,684
2017-11-14T14:01:08.969Z,648
2017-11-14T14:02:10.852Z,576
2017-11-14T14:03:12.730Z,548
2017-11-14T14:04:14.550Z,560
2017-11-14T14:05:16.365Z,568
2017-11-14T14:06:18.248Z,560
2017-11-14T14:07:20.139Z,528
2017-11-14T14:08:22.015Z,476
2017-11-14T14:09:36.254Z,472
2017-11-14T14:10:38.159Z,556
2017-11-14T14:11:40.043Z,692
2017-11-14T14:12:41.923Z,808
2017-11-14T14:13:43.748Z,896
2017-11-14T14:14:45.565Z,952
2017-11-14T14:15:47.443Z,996
2017-11-14T14:16:49.326Z,1044
2017-11-14T14:17:51.207Z,1040
2017-11-14T14:19:05.361Z,1024
2017-11-14T14:20:07.239Z,984
2017-11-14T14:21:09.127Z,960
2017-11-14T14:22:11.005Z,948
2017-11-14T14:23:12.848Z,936
2017-11-14T14:24:14.681Z,932
2017-11-14T14:25:16.568Z,932
2017-11-14T14:26:18.455Z,956
2017-11-14T14:27:20.337Z,984
2017-11-14T14:28:34.489Z,952
2017-11-14T14:29:36.370Z,900
2017-11-14T14:30:38.253Z,856
2017-11-14T14:31:40.133Z,812
2017-11-14T14:32:41.951Z,784
2017-11-14T14:33:43.767Z,776
2017-11-14T14:34:45.727Z,752
2017-11-14T14:35:47.715Z,716
2017-11-14T14:36:49.744Z,680
2017-11-14T14:38:03.873Z,660
2017-11-14T14:39:05.752Z,644
2017-11-14T14:40:07.634Z,640
2017-11-14T14:41:09.515Z,632